sensor_id;sensor_type;location;lat;lon;timestamp;P1;durP1;ratioP1;P2;durP2;ratioP2
11854;SDS011;5987;53.140;8.904;2023-07-20T00:01:46;1.30;;;1.10;;
11854;SDS011;5987;53.140;8.904;2023-07-20T00:05:08;2.07;;;1.40;;
11854;SDS011;5987;53.140;8.904;2023-07-20T00:08:12;3.07;;;1.37;;
11854;SDS011;5987;53.140;8.904;2023-07-20T00:11:16;1.47;;;1.37;;
11854;SDS011;5987;53.140;8.904;2023-07-20T00:14:20;7.03;;;1.43;;
11854;SDS011;5987;53.140;8.904;2023-07-20T00:17:23;1.33;;;1.23;;
11854;SDS011;5987;53.140;8.904;2023-07-20T00:20:29;2.90;;;1.27;;
11854;SDS011;5987;53.140;8.904;2023-07-20T00:23:32;2.33;;;1.93;;
11854;SDS011;5987;53.140;8.904;2023-07-20T00:26:36;1.97;;;1.87;;
11854;SDS011;5987;53.140;8.904;2023-07-20T00:29:40;2.10;;;1.50;;
11854;SDS011;5987;53.140;8.904;2023-07-20T00:32:44;2.73;;;2.00;;
11854;SDS011;5987;53.140;8.904;2023-07-20T00:35:49;3.50;;;2.00;;
11854;SDS011;5987;53.140;8.904;2023-07-20T00:38:53;4.53;;;1.80;;
11854;SDS011;5987;53.140;8.904;2023-07-20T00:41:57;2.30;;;1.83;;
11854;SDS011;5987;53.140;8.904;2023-07-20T00:45:02;2.43;;;1.53;;
11854;SDS011;5987;53.140;8.904;2023-07-20T00:48:06;4.33;;;2.23;;
11854;SDS011;5987;53.140;8.904;2023-07-20T00:51:12;2.37;;;2.00;;
11854;SDS011;5987;53.140;8.904;2023-07-20T00:54:16;1.83;;;1.73;;
11854;SDS011;5987;53.140;8.904;2023-07-20T00:57:20;5.67;;;2.03;;
11854;SDS011;5987;53.140;8.904;2023-07-20T01:00:26;2.57;;;1.90;;
11854;SDS011;5987;53.140;8.904;2023-07-20T01:03:30;3.80;;;2.43;;
11854;SDS011;5987;53.140;8.904;2023-07-20T01:06:37;4.10;;;2.83;;
11854;SDS011;5987;53.140;8.904;2023-07-20T01:09:52;3.60;;;2.00;;
11854;SDS011;5987;53.140;8.904;2023-07-20T01:13:09;2.70;;;2.40;;
11854;SDS011;5987;53.140;8.904;2023-07-20T01:16:13;2.83;;;2.37;;
11854;SDS011;5987;53.140;8.904;2023-07-20T01:19:17;5.83;;;2.73;;
11854;SDS011;5987;53.140;8.904;2023-07-20T01:22:29;3.63;;;2.33;;
11854;SDS011;5987;53.140;8.904;2023-07-20T01:26:12;3.27;;;2.27;;
11854;SDS011;5987;53.140;8.904;2023-07-20T01:29:50;3.23;;;2.40;;
11854;SDS011;5987;53.140;8.904;2023-07-20T01:33:15;3.77;;;2.90;;
11854;SDS011;5987;53.140;8.904;2023-07-20T01:36:22;3.70;;;2.77;;
11854;SDS011;5987;53.140;8.904;2023-07-20T01:39:30;4.30;;;3.00;;
11854;SDS011;5987;53.140;8.904;2023-07-20T01:42:36;5.80;;;2.37;;
11854;SDS011;5987;53.140;8.904;2023-07-20T01:45:39;4.00;;;2.47;;
11854;SDS011;5987;53.140;8.904;2023-07-20T01:48:44;5.23;;;2.37;;
11854;SDS011;5987;53.140;8.904;2023-07-20T01:51:48;3.53;;;2.30;;
11854;SDS011;5987;53.140;8.904;2023-07-20T01:54:52;2.93;;;2.00;;
11854;SDS011;5987;53.140;8.904;2023-07-20T01:57:55;2.13;;;1.97;;
11854;SDS011;5987;53.140;8.904;2023-07-20T02:01:01;2.47;;;1.87;;
11854;SDS011;5987;53.140;8.904;2023-07-20T02:04:05;2.37;;;2.17;;
11854;SDS011;5987;53.140;8.904;2023-07-20T02:07:09;1.90;;;1.63;;
11854;SDS011;5987;53.140;8.904;2023-07-20T02:10:13;3.27;;;2.20;;
11854;SDS011;5987;53.140;8.904;2023-07-20T02:13:17;1.97;;;1.60;;
11854;SDS011;5987;53.140;8.904;2023-07-20T02:16:21;3.63;;;2.07;;
11854;SDS011;5987;53.140;8.904;2023-07-20T02:19:26;1.93;;;1.77;;
11854;SDS011;5987;53.140;8.904;2023-07-20T02:22:32;2.03;;;1.60;;
11854;SDS011;5987;53.140;8.904;2023-07-20T02:25:36;1.70;;;1.60;;
11854;SDS011;5987;53.140;8.904;2023-07-20T02:28:41;1.53;;;1.30;;
11854;SDS011;5987;53.140;8.904;2023-07-20T02:31:44;3.13;;;2.23;;
11854;SDS011;5987;53.140;8.904;2023-07-20T02:34:50;2.07;;;1.53;;
11854;SDS011;5987;53.140;8.904;2023-07-20T02:37:53;2.03;;;1.80;;
11854;SDS011;5987;53.140;8.904;2023-07-20T02:40:57;3.27;;;2.20;;
11854;SDS011;5987;53.140;8.904;2023-07-20T02:44:01;2.23;;;1.93;;
11854;SDS011;5987;53.140;8.904;2023-07-20T02:47:05;3.07;;;1.77;;
11854;SDS011;5987;53.140;8.904;2023-07-20T02:50:10;1.43;;;1.33;;
11854;SDS011;5987;53.140;8.904;2023-07-20T02:53:15;2.23;;;1.60;;
11854;SDS011;5987;53.140;8.904;2023-07-20T02:56:19;1.83;;;1.37;;
11854;SDS011;5987;53.140;8.904;2023-07-20T02:59:24;1.80;;;1.03;;
11854;SDS011;5987;53.140;8.904;2023-07-20T03:02:29;3.13;;;1.20;;
11854;SDS011;5987;53.140;8.904;2023-07-20T03:05:34;1.43;;;1.33;;
11854;SDS011;5987;53.140;8.904;2023-07-20T03:08:39;1.93;;;1.50;;
11854;SDS011;5987;53.140;8.904;2023-07-20T03:11:49;1.40;;;1.30;;
11854;SDS011;5987;53.140;8.904;2023-07-20T03:14:53;2.47;;;1.23;;
11854;SDS011;5987;53.140;8.904;2023-07-20T03:17:58;1.57;;;1.33;;
11854;SDS011;5987;53.140;8.904;2023-07-20T03:21:03;2.53;;;1.20;;
11854;SDS011;5987;53.140;8.904;2023-07-20T03:24:07;1.33;;;1.17;;
11854;SDS011;5987;53.140;8.904;2023-07-20T03:27:11;0.70;;;0.70;;
11854;SDS011;5987;53.140;8.904;2023-07-20T03:30:14;1.27;;;1.03;;
11854;SDS011;5987;53.140;8.904;2023-07-20T03:33:18;1.27;;;1.10;;
11854;SDS011;5987;53.140;8.904;2023-07-20T03:36:23;1.50;;;1.23;;
11854;SDS011;5987;53.140;8.904;2023-07-20T03:39:27;2.80;;;1.73;;
11854;SDS011;5987;53.140;8.904;2023-07-20T03:42:30;1.63;;;1.50;;
11854;SDS011;5987;53.140;8.904;2023-07-20T03:45:34;1.33;;;1.23;;
11854;SDS011;5987;53.140;8.904;2023-07-20T03:48:37;3.13;;;1.70;;
11854;SDS011;5987;53.140;8.904;2023-07-20T03:51:42;2.53;;;1.90;;
11854;SDS011;5987;53.140;8.904;2023-07-20T03:54:46;1.67;;;1.50;;
11854;SDS011;5987;53.140;8.904;2023-07-20T03:57:49;2.67;;;1.80;;
11854;SDS011;5987;53.140;8.904;2023-07-20T04:00:53;2.90;;;2.03;;
11854;SDS011;5987;53.140;8.904;2023-07-20T04:03:56;2.00;;;1.73;;
11854;SDS011;5987;53.140;8.904;2023-07-20T04:07:01;2.27;;;2.07;;
11854;SDS011;5987;53.140;8.904;2023-07-20T04:10:06;2.43;;;2.13;;
11854;SDS011;5987;53.140;8.904;2023-07-20T04:13:11;5.70;;;2.80;;
11854;SDS011;5987;53.140;8.904;2023-07-20T04:16:14;3.27;;;1.90;;
11854;SDS011;5987;53.140;8.904;2023-07-20T04:19:18;3.23;;;2.20;;
11854;SDS011;5987;53.140;8.904;2023-07-20T04:22:23;5.57;;;2.80;;
11854;SDS011;5987;53.140;8.904;2023-07-20T04:25:27;2.93;;;2.33;;
11854;SDS011;5987;53.140;8.904;2023-07-20T04:28:30;2.27;;;1.93;;
11854;SDS011;5987;53.140;8.904;2023-07-20T04:31:35;2.13;;;1.80;;
11854;SDS011;5987;53.140;8.904;2023-07-20T04:34:38;2.70;;;1.73;;
11854;SDS011;5987;53.140;8.904;2023-07-20T04:37:43;3.20;;;2.17;;
11854;SDS011;5987;53.140;8.904;2023-07-20T04:40:48;4.73;;;2.23;;
11854;SDS011;5987;53.140;8.904;2023-07-20T04:43:52;2.00;;;1.63;;
11854;SDS011;5987;53.140;8.904;2023-07-20T04:46:56;3.50;;;1.97;;
11854;SDS011;5987;53.140;8.904;2023-07-20T04:50:00;2.37;;;2.13;;
11854;SDS011;5987;53.140;8.904;2023-07-20T04:53:05;2.23;;;2.03;;
11854;SDS011;5987;53.140;8.904;2023-07-20T04:56:08;5.03;;;1.97;;
11854;SDS011;5987;53.140;8.904;2023-07-20T04:59:12;1.97;;;1.80;;
11854;SDS011;5987;53.140;8.904;2023-07-20T05:02:16;2.60;;;1.87;;
11854;SDS011;5987;53.140;8.904;2023-07-20T05:05:19;2.60;;;1.30;;
11854;SDS011;5987;53.140;8.904;2023-07-20T05:08:24;1.50;;;1.33;;
11854;SDS011;5987;53.140;8.904;2023-07-20T05:11:28;2.70;;;1.93;;
11854;SDS011;5987;53.140;8.904;2023-07-20T05:14:32;2.37;;;1.63;;
11854;SDS011;5987;53.140;8.904;2023-07-20T05:17:36;2.17;;;1.60;;
11854;SDS011;5987;53.140;8.904;2023-07-20T05:20:40;3.20;;;1.77;;
11854;SDS011;5987;53.140;8.904;2023-07-20T05:23:45;1.70;;;1.60;;
11854;SDS011;5987;53.140;8.904;2023-07-20T05:26:49;2.73;;;1.43;;
11854;SDS011;5987;53.140;8.904;2023-07-20T05:29:52;5.17;;;1.70;;
11854;SDS011;5987;53.140;8.904;2023-07-20T05:32:56;3.80;;;1.77;;
11854;SDS011;5987;53.140;8.904;2023-07-20T05:35:59;1.50;;;1.33;;
11854;SDS011;5987;53.140;8.904;2023-07-20T05:39:04;3.50;;;1.97;;
11854;SDS011;5987;53.140;8.904;2023-07-20T05:42:08;1.73;;;1.20;;
11854;SDS011;5987;53.140;8.904;2023-07-20T05:45:12;3.50;;;1.30;;
11854;SDS011;5987;53.140;8.904;2023-07-20T05:48:15;3.17;;;1.70;;
11854;SDS011;5987;53.140;8.904;2023-07-20T05:51:19;1.30;;;1.13;;
11854;SDS011;5987;53.140;8.904;2023-07-20T05:54:24;2.07;;;1.10;;
11854;SDS011;5987;53.140;8.904;2023-07-20T05:57:28;1.80;;;1.00;;
11854;SDS011;5987;53.140;8.904;2023-07-20T06:00:32;1.00;;;0.77;;
11854;SDS011;5987;53.140;8.904;2023-07-20T06:03:35;2.00;;;1.00;;
11854;SDS011;5987;53.140;8.904;2023-07-20T06:06:39;2.10;;;0.83;;
11854;SDS011;5987;53.140;8.904;2023-07-20T06:09:44;0.60;;;0.60;;
11854;SDS011;5987;53.140;8.904;2023-07-20T06:12:48;1.43;;;0.80;;
11854;SDS011;5987;53.140;8.904;2023-07-20T06:15:51;1.57;;;1.03;;
11854;SDS011;5987;53.140;8.904;2023-07-20T06:18:56;2.43;;;0.67;;
11854;SDS011;5987;53.140;8.904;2023-07-20T06:22:02;4.23;;;0.63;;
11854;SDS011;5987;53.140;8.904;2023-07-20T06:25:09;1.57;;;0.67;;
11854;SDS011;5987;53.140;8.904;2023-07-20T06:28:13;0.63;;;0.63;;
11854;SDS011;5987;53.140;8.904;2023-07-20T06:31:16;1.87;;;0.50;;
11854;SDS011;5987;53.140;8.904;2023-07-20T06:34:20;1.27;;;0.50;;
11854;SDS011;5987;53.140;8.904;2023-07-20T06:37:24;0.67;;;0.67;;
11854;SDS011;5987;53.140;8.904;2023-07-20T06:40:29;0.97;;;0.40;;
11854;SDS011;5987;53.140;8.904;2023-07-20T06:43:33;1.17;;;0.60;;
11854;SDS011;5987;53.140;8.904;2023-07-20T06:46:40;1.30;;;0.73;;
11854;SDS011;5987;53.140;8.904;2023-07-20T06:49:43;0.93;;;0.67;;
11854;SDS011;5987;53.140;8.904;2023-07-20T06:52:47;1.20;;;0.50;;
11854;SDS011;5987;53.140;8.904;2023-07-20T06:55:52;1.90;;;0.60;;
11854;SDS011;5987;53.140;8.904;2023-07-20T06:58:55;0.60;;;0.60;;
11854;SDS011;5987;53.140;8.904;2023-07-20T07:01:59;0.57;;;0.57;;
11854;SDS011;5987;53.140;8.904;2023-07-20T07:05:03;1.50;;;0.70;;
11854;SDS011;5987;53.140;8.904;2023-07-20T07:08:10;0.40;;;0.40;;
11854;SDS011;5987;53.140;8.904;2023-07-20T07:11:15;1.13;;;0.73;;
11854;SDS011;5987;53.140;8.904;2023-07-20T07:14:19;0.50;;;0.50;;
11854;SDS011;5987;53.140;8.904;2023-07-20T07:17:25;1.83;;;0.50;;
11854;SDS011;5987;53.140;8.904;2023-07-20T07:20:29;1.93;;;0.60;;
11854;SDS011;5987;53.140;8.904;2023-07-20T07:23:32;0.93;;;0.50;;
11854;SDS011;5987;53.140;8.904;2023-07-20T07:26:37;0.30;;;0.30;;
11854;SDS011;5987;53.140;8.904;2023-07-20T07:29:41;2.00;;;0.60;;
11854;SDS011;5987;53.140;8.904;2023-07-20T07:32:46;4.50;;;0.63;;
11854;SDS011;5987;53.140;8.904;2023-07-20T07:35:50;1.43;;;0.67;;
11854;SDS011;5987;53.140;8.904;2023-07-20T07:38:54;3.80;;;0.73;;
11854;SDS011;5987;53.140;8.904;2023-07-20T07:42:01;3.50;;;0.57;;
11854;SDS011;5987;53.140;8.904;2023-07-20T07:45:09;1.97;;;0.53;;
11854;SDS011;5987;53.140;8.904;2023-07-20T07:48:13;0.43;;;0.40;;
11854;SDS011;5987;53.140;8.904;2023-07-20T07:51:16;2.67;;;0.70;;
11854;SDS011;5987;53.140;8.904;2023-07-20T07:54:20;3.47;;;0.80;;
11854;SDS011;5987;53.140;8.904;2023-07-20T07:57:25;0.90;;;0.53;;
11854;SDS011;5987;53.140;8.904;2023-07-20T08:00:29;2.90;;;1.10;;
11854;SDS011;5987;53.140;8.904;2023-07-20T08:03:33;2.20;;;0.87;;
11854;SDS011;5987;53.140;8.904;2023-07-20T08:06:37;1.13;;;0.60;;
11854;SDS011;5987;53.140;8.904;2023-07-20T08:09:40;0.90;;;0.53;;
11854;SDS011;5987;53.140;8.904;2023-07-20T08:12:45;1.30;;;0.63;;
11854;SDS011;5987;53.140;8.904;2023-07-20T08:15:49;2.00;;;0.63;;
11854;SDS011;5987;53.140;8.904;2023-07-20T08:18:54;0.83;;;0.73;;
11854;SDS011;5987;53.140;8.904;2023-07-20T08:21:58;3.60;;;1.00;;
11854;SDS011;5987;53.140;8.904;2023-07-20T08:25:01;1.40;;;0.80;;
11854;SDS011;5987;53.140;8.904;2023-07-20T08:28:07;0.97;;;0.90;;
11854;SDS011;5987;53.140;8.904;2023-07-20T08:31:11;2.97;;;0.80;;
11854;SDS011;5987;53.140;8.904;2023-07-20T08:34:14;1.00;;;0.90;;
11854;SDS011;5987;53.140;8.904;2023-07-20T08:37:31;1.07;;;0.93;;
11854;SDS011;5987;53.140;8.904;2023-07-20T08:40:39;1.15;;;0.77;;
11854;SDS011;5987;53.140;8.904;2023-07-20T08:43:45;1.03;;;0.60;;
11854;SDS011;5987;53.140;8.904;2023-07-20T08:46:50;2.43;;;0.80;;
11854;SDS011;5987;53.140;8.904;2023-07-20T08:49:56;1.87;;;0.80;;
11854;SDS011;5987;53.140;8.904;2023-07-20T08:53:03;2.07;;;0.93;;
11854;SDS011;5987;53.140;8.904;2023-07-20T08:56:07;1.73;;;0.90;;
11854;SDS011;5987;53.140;8.904;2023-07-20T08:59:15;3.40;;;1.33;;
11854;SDS011;5987;53.140;8.904;2023-07-20T09:02:20;1.70;;;0.90;;
11854;SDS011;5987;53.140;8.904;2023-07-20T09:05:29;0.97;;;0.73;;
11854;SDS011;5987;53.140;8.904;2023-07-20T09:08:37;3.87;;;1.00;;
11854;SDS011;5987;53.140;8.904;2023-07-20T09:11:41;1.37;;;0.60;;
11854;SDS011;5987;53.140;8.904;2023-07-20T09:14:47;1.67;;;0.90;;
11854;SDS011;5987;53.140;8.904;2023-07-20T09:17:51;1.70;;;1.43;;
11854;SDS011;5987;53.140;8.904;2023-07-20T09:20:59;2.93;;;0.60;;
11854;SDS011;5987;53.140;8.904;2023-07-20T09:24:06;0.77;;;0.77;;
11854;SDS011;5987;53.140;8.904;2023-07-20T09:27:10;0.93;;;0.73;;
11854;SDS011;5987;53.140;8.904;2023-07-20T09:30:15;1.87;;;0.97;;
11854;SDS011;5987;53.140;8.904;2023-07-20T09:33:21;4.57;;;1.00;;
11854;SDS011;5987;53.140;8.904;2023-07-20T09:36:28;6.93;;;1.10;;
11854;SDS011;5987;53.140;8.904;2023-07-20T09:39:42;1.30;;;0.90;;
11854;SDS011;5987;53.140;8.904;2023-07-20T09:42:49;2.57;;;1.00;;
11854;SDS011;5987;53.140;8.904;2023-07-20T09:46:05;1.60;;;0.80;;
11854;SDS011;5987;53.140;8.904;2023-07-20T09:49:09;2.27;;;0.57;;
11854;SDS011;5987;53.140;8.904;2023-07-20T09:52:16;0.80;;;0.80;;
11854;SDS011;5987;53.140;8.904;2023-07-20T09:55:25;1.33;;;1.00;;
11854;SDS011;5987;53.140;8.904;2023-07-20T09:58:30;0.70;;;0.70;;
11854;SDS011;5987;53.140;8.904;2023-07-20T10:01:37;2.77;;;1.00;;
11854;SDS011;5987;53.140;8.904;2023-07-20T10:04:46;3.83;;;1.23;;
11854;SDS011;5987;53.140;8.904;2023-07-20T10:07:55;1.87;;;1.10;;
11854;SDS011;5987;53.140;8.904;2023-07-20T10:11:03;4.60;;;1.07;;
11854;SDS011;5987;53.140;8.904;2023-07-20T10:14:10;3.63;;;1.17;;
11854;SDS011;5987;53.140;8.904;2023-07-20T10:17:23;1.70;;;1.33;;
11854;SDS011;5987;53.140;8.904;2023-07-20T10:20:29;0.93;;;0.70;;
11854;SDS011;5987;53.140;8.904;2023-07-20T10:23:35;1.07;;;0.80;;
11854;SDS011;5987;53.140;8.904;2023-07-20T10:26:41;2.43;;;0.80;;
11854;SDS011;5987;53.140;8.904;2023-07-20T10:29:45;3.43;;;1.00;;
11854;SDS011;5987;53.140;8.904;2023-07-20T10:32:52;4.40;;;0.80;;
11854;SDS011;5987;53.140;8.904;2023-07-20T10:35:56;1.43;;;0.67;;
11854;SDS011;5987;53.140;8.904;2023-07-20T10:39:03;0.90;;;0.80;;
11854;SDS011;5987;53.140;8.904;2023-07-20T10:42:07;2.00;;;0.83;;
11854;SDS011;5987;53.140;8.904;2023-07-20T10:45:36;1.70;;;0.93;;
11854;SDS011;5987;53.140;8.904;2023-07-20T10:49:03;1.77;;;0.80;;
11854;SDS011;5987;53.140;8.904;2023-07-20T10:52:08;2.50;;;0.70;;
11854;SDS011;5987;53.140;8.904;2023-07-20T10:55:14;0.60;;;0.60;;
11854;SDS011;5987;53.140;8.904;2023-07-20T10:58:18;3.90;;;2.20;;
11854;SDS011;5987;53.140;8.904;2023-07-20T11:01:28;3.77;;;0.90;;
11854;SDS011;5987;53.140;8.904;2023-07-20T11:04:39;4.07;;;0.87;;
11854;SDS011;5987;53.140;8.904;2023-07-20T11:07:43;2.10;;;1.10;;
11854;SDS011;5987;53.140;8.904;2023-07-20T11:10:48;2.30;;;1.03;;
11854;SDS011;5987;53.140;8.904;2023-07-20T11:14:24;1.07;;;0.80;;
11854;SDS011;5987;53.140;8.904;2023-07-20T11:17:30;3.10;;;0.87;;
11854;SDS011;5987;53.140;8.904;2023-07-20T11:20:36;3.60;;;1.00;;
11854;SDS011;5987;53.140;8.904;2023-07-20T11:23:40;3.40;;;0.90;;
11854;SDS011;5987;53.140;8.904;2023-07-20T11:26:47;2.30;;;1.57;;
11854;SDS011;5987;53.140;8.904;2023-07-20T11:29:53;2.33;;;1.10;;
11854;SDS011;5987;53.140;8.904;2023-07-20T11:32:56;2.13;;;1.03;;
11854;SDS011;5987;53.140;8.904;2023-07-20T11:36:01;3.17;;;1.20;;
11854;SDS011;5987;53.140;8.904;2023-07-20T11:39:27;3.30;;;1.20;;
11854;SDS011;5987;53.140;8.904;2023-07-20T11:42:32;0.70;;;0.60;;
11854;SDS011;5987;53.140;8.904;2023-07-20T11:45:40;2.77;;;1.07;;
11854;SDS011;5987;53.140;8.904;2023-07-20T11:48:44;4.37;;;0.90;;
11854;SDS011;5987;53.140;8.904;2023-07-20T11:51:49;1.17;;;0.77;;
11854;SDS011;5987;53.140;8.904;2023-07-20T11:54:53;2.47;;;0.60;;
11854;SDS011;5987;53.140;8.904;2023-07-20T11:58:01;0.83;;;0.57;;
11854;SDS011;5987;53.140;8.904;2023-07-20T12:01:05;2.87;;;0.90;;
11854;SDS011;5987;53.140;8.904;2023-07-20T12:04:09;0.33;;;0.33;;
11854;SDS011;5987;53.140;8.904;2023-07-20T12:07:14;0.73;;;0.70;;
11854;SDS011;5987;53.140;8.904;2023-07-20T12:10:23;0.60;;;0.50;;
11854;SDS011;5987;53.140;8.904;2023-07-20T12:13:36;0.63;;;0.60;;
11854;SDS011;5987;53.140;8.904;2023-07-20T12:16:41;1.83;;;0.50;;
11854;SDS011;5987;53.140;8.904;2023-07-20T12:19:45;3.53;;;0.40;;
11854;SDS011;5987;53.140;8.904;2023-07-20T12:22:50;0.80;;;0.70;;
11854;SDS011;5987;53.140;8.904;2023-07-20T12:25:53;1.67;;;0.50;;
11854;SDS011;5987;53.140;8.904;2023-07-20T12:28:59;1.43;;;0.70;;
11854;SDS011;5987;53.140;8.904;2023-07-20T12:32:05;2.80;;;0.87;;
11854;SDS011;5987;53.140;8.904;2023-07-20T12:35:09;1.10;;;0.50;;
11854;SDS011;5987;53.140;8.904;2023-07-20T12:38:17;1.10;;;0.70;;
11854;SDS011;5987;53.140;8.904;2023-07-20T12:41:21;1.63;;;0.80;;
11854;SDS011;5987;53.140;8.904;2023-07-20T12:44:24;3.70;;;0.77;;
11854;SDS011;5987;53.140;8.904;2023-07-20T12:47:28;1.47;;;0.47;;
11854;SDS011;5987;53.140;8.904;2023-07-20T12:50:32;1.10;;;0.40;;
11854;SDS011;5987;53.140;8.904;2023-07-20T12:53:37;0.53;;;0.30;;
11854;SDS011;5987;53.140;8.904;2023-07-20T12:56:41;0.37;;;0.37;;
11854;SDS011;5987;53.140;8.904;2023-07-20T12:59:48;2.93;;;0.60;;
11854;SDS011;5987;53.140;8.904;2023-07-20T13:02:52;1.23;;;0.57;;
11854;SDS011;5987;53.140;8.904;2023-07-20T13:05:59;4.80;;;0.70;;
11854;SDS011;5987;53.140;8.904;2023-07-20T13:09:06;2.73;;;0.70;;
11854;SDS011;5987;53.140;8.904;2023-07-20T13:12:10;1.30;;;0.40;;
11854;SDS011;5987;53.140;8.904;2023-07-20T13:15:14;0.60;;;0.57;;
11854;SDS011;5987;53.140;8.904;2023-07-20T13:18:17;3.97;;;0.50;;
11854;SDS011;5987;53.140;8.904;2023-07-20T13:21:21;0.43;;;0.43;;
11854;SDS011;5987;53.140;8.904;2023-07-20T13:24:28;1.63;;;0.23;;
11854;SDS011;5987;53.140;8.904;2023-07-20T13:27:32;0.60;;;0.60;;
11854;SDS011;5987;53.140;8.904;2023-07-20T13:30:35;5.60;;;0.70;;
11854;SDS011;5987;53.140;8.904;2023-07-20T13:33:41;1.60;;;0.43;;
11854;SDS011;5987;53.140;8.904;2023-07-20T13:36:45;0.60;;;0.50;;
11854;SDS011;5987;53.140;8.904;2023-07-20T13:39:51;1.53;;;0.43;;
11854;SDS011;5987;53.140;8.904;2023-07-20T13:42:55;4.10;;;0.60;;
11854;SDS011;5987;53.140;8.904;2023-07-20T13:45:59;0.53;;;0.30;;
11854;SDS011;5987;53.140;8.904;2023-07-20T13:49:03;1.30;;;0.63;;
11854;SDS011;5987;53.140;8.904;2023-07-20T13:52:14;1.50;;;0.50;;
11854;SDS011;5987;53.140;8.904;2023-07-20T13:55:21;0.70;;;0.50;;
11854;SDS011;5987;53.140;8.904;2023-07-20T13:58:28;0.60;;;0.40;;
11854;SDS011;5987;53.140;8.904;2023-07-20T14:01:32;0.57;;;0.43;;
11854;SDS011;5987;53.140;8.904;2023-07-20T14:04:39;4.67;;;0.63;;
11854;SDS011;5987;53.140;8.904;2023-07-20T14:07:43;1.07;;;0.60;;
11854;SDS011;5987;53.140;8.904;2023-07-20T14:10:48;2.20;;;0.50;;
11854;SDS011;5987;53.140;8.904;2023-07-20T14:13:54;1.77;;;0.80;;
11854;SDS011;5987;53.140;8.904;2023-07-20T14:16:59;1.80;;;0.50;;
11854;SDS011;5987;53.140;8.904;2023-07-20T14:20:03;2.67;;;0.40;;
11854;SDS011;5987;53.140;8.904;2023-07-20T14:23:22;0.90;;;0.50;;
11854;SDS011;5987;53.140;8.904;2023-07-20T14:26:29;6.07;;;0.80;;
11854;SDS011;5987;53.140;8.904;2023-07-20T14:29:34;0.30;;;0.30;;
11854;SDS011;5987;53.140;8.904;2023-07-20T14:32:38;0.70;;;0.40;;
11854;SDS011;5987;53.140;8.904;2023-07-20T14:35:41;0.77;;;0.30;;
11854;SDS011;5987;53.140;8.904;2023-07-20T14:38:45;0.20;;;0.20;;
11854;SDS011;5987;53.140;8.904;2023-07-20T14:41:50;1.37;;;0.70;;
11854;SDS011;5987;53.140;8.904;2023-07-20T14:44:55;0.47;;;0.40;;
11854;SDS011;5987;53.140;8.904;2023-07-20T14:47:58;0.53;;;0.50;;
11854;SDS011;5987;53.140;8.904;2023-07-20T14:51:02;3.57;;;0.60;;
11854;SDS011;5987;53.140;8.904;2023-07-20T14:54:06;1.53;;;0.67;;
11854;SDS011;5987;53.140;8.904;2023-07-20T14:57:11;0.87;;;0.47;;
11854;SDS011;5987;53.140;8.904;2023-07-20T15:00:17;0.97;;;0.43;;
11854;SDS011;5987;53.140;8.904;2023-07-20T15:03:21;1.53;;;0.53;;
11854;SDS011;5987;53.140;8.904;2023-07-20T15:06:24;2.07;;;0.60;;
11854;SDS011;5987;53.140;8.904;2023-07-20T15:09:31;2.10;;;0.77;;
11854;SDS011;5987;53.140;8.904;2023-07-20T15:12:36;0.40;;;0.30;;
11854;SDS011;5987;53.140;8.904;2023-07-20T15:15:40;2.70;;;0.90;;
11854;SDS011;5987;53.140;8.904;2023-07-20T15:18:44;0.93;;;0.60;;
11854;SDS011;5987;53.140;8.904;2023-07-20T15:21:49;4.37;;;0.77;;
11854;SDS011;5987;53.140;8.904;2023-07-20T15:24:53;1.10;;;0.50;;
11854;SDS011;5987;53.140;8.904;2023-07-20T15:27:58;1.40;;;0.80;;
11854;SDS011;5987;53.140;8.904;2023-07-20T15:31:02;2.70;;;0.73;;
11854;SDS011;5987;53.140;8.904;2023-07-20T15:34:07;1.93;;;0.77;;
11854;SDS011;5987;53.140;8.904;2023-07-20T15:37:15;0.57;;;0.30;;
11854;SDS011;5987;53.140;8.904;2023-07-20T15:40:18;1.83;;;0.70;;
11854;SDS011;5987;53.140;8.904;2023-07-20T15:43:23;1.57;;;0.80;;
11854;SDS011;5987;53.140;8.904;2023-07-20T15:46:43;0.70;;;0.40;;
11854;SDS011;5987;53.140;8.904;2023-07-20T15:49:50;0.60;;;0.60;;
11854;SDS011;5987;53.140;8.904;2023-07-20T15:52:54;0.83;;;0.50;;
11854;SDS011;5987;53.140;8.904;2023-07-20T15:55:58;1.20;;;0.50;;
11854;SDS011;5987;53.140;8.904;2023-07-20T15:59:04;4.27;;;0.57;;
11854;SDS011;5987;53.140;8.904;2023-07-20T16:02:09;3.73;;;0.97;;
11854;SDS011;5987;53.140;8.904;2023-07-20T16:05:14;2.03;;;0.70;;
11854;SDS011;5987;53.140;8.904;2023-07-20T16:08:17;2.27;;;0.63;;
11854;SDS011;5987;53.140;8.904;2023-07-20T16:11:21;1.03;;;0.63;;
11854;SDS011;5987;53.140;8.904;2023-07-20T16:14:29;2.57;;;0.70;;
11854;SDS011;5987;53.140;8.904;2023-07-20T16:17:53;1.33;;;0.50;;
11854;SDS011;5987;53.140;8.904;2023-07-20T16:20:57;1.60;;;0.70;;
11854;SDS011;5987;53.140;8.904;2023-07-20T16:24:00;2.67;;;0.50;;
11854;SDS011;5987;53.140;8.904;2023-07-20T16:27:05;1.50;;;0.40;;
11854;SDS011;5987;53.140;8.904;2023-07-20T16:30:11;0.40;;;0.40;;
11854;SDS011;5987;53.140;8.904;2023-07-20T16:33:15;1.10;;;0.53;;
11854;SDS011;5987;53.140;8.904;2023-07-20T16:36:19;1.57;;;0.70;;
11854;SDS011;5987;53.140;8.904;2023-07-20T16:39:23;2.30;;;0.77;;
11854;SDS011;5987;53.140;8.904;2023-07-20T16:42:28;2.47;;;0.87;;
11854;SDS011;5987;53.140;8.904;2023-07-20T16:45:36;2.83;;;1.20;;
11854;SDS011;5987;53.140;8.904;2023-07-20T16:48:39;5.30;;;1.20;;
11854;SDS011;5987;53.140;8.904;2023-07-20T16:51:46;1.63;;;0.70;;
11854;SDS011;5987;53.140;8.904;2023-07-20T16:54:50;0.60;;;0.60;;
11854;SDS011;5987;53.140;8.904;2023-07-20T16:57:53;2.07;;;1.20;;
11854;SDS011;5987;53.140;8.904;2023-07-20T17:01:02;1.23;;;1.00;;
11854;SDS011;5987;53.140;8.904;2023-07-20T17:04:08;3.27;;;1.30;;
11854;SDS011;5987;53.140;8.904;2023-07-20T17:07:12;1.20;;;1.10;;
11854;SDS011;5987;53.140;8.904;2023-07-20T17:10:17;2.17;;;1.20;;
11854;SDS011;5987;53.140;8.904;2023-07-20T17:13:21;2.53;;;1.07;;
11854;SDS011;5987;53.140;8.904;2023-07-20T17:16:26;4.43;;;1.20;;
11854;SDS011;5987;53.140;8.904;2023-07-20T17:19:30;4.73;;;1.30;;
11854;SDS011;5987;53.140;8.904;2023-07-20T17:22:34;2.13;;;1.17;;
11854;SDS011;5987;53.140;8.904;2023-07-20T17:25:41;3.40;;;1.50;;
11854;SDS011;5987;53.140;8.904;2023-07-20T17:28:48;1.20;;;1.10;;
11854;SDS011;5987;53.140;8.904;2023-07-20T17:31:53;3.43;;;1.20;;
11854;SDS011;5987;53.140;8.904;2023-07-20T17:34:58;1.40;;;1.20;;
11854;SDS011;5987;53.140;8.904;2023-07-20T17:38:02;1.07;;;1.07;;
11854;SDS011;5987;53.140;8.904;2023-07-20T17:41:08;3.83;;;1.57;;
11854;SDS011;5987;53.140;8.904;2023-07-20T17:44:16;2.67;;;1.67;;
11854;SDS011;5987;53.140;8.904;2023-07-20T17:47:21;1.67;;;1.03;;
11854;SDS011;5987;53.140;8.904;2023-07-20T17:50:25;2.27;;;1.43;;
11854;SDS011;5987;53.140;8.904;2023-07-20T17:53:29;3.77;;;1.17;;
11854;SDS011;5987;53.140;8.904;2023-07-20T17:56:33;1.10;;;1.00;;
11854;SDS011;5987;53.140;8.904;2023-07-20T17:59:37;2.27;;;2.00;;
11854;SDS011;5987;53.140;8.904;2023-07-20T18:02:45;4.20;;;1.10;;
11854;SDS011;5987;53.140;8.904;2023-07-20T18:05:49;0.80;;;0.80;;
11854;SDS011;5987;53.140;8.904;2023-07-20T18:08:52;2.20;;;1.23;;
11854;SDS011;5987;53.140;8.904;2023-07-20T18:11:56;6.03;;;1.53;;
11854;SDS011;5987;53.140;8.904;2023-07-20T18:15:00;2.93;;;1.50;;
11854;SDS011;5987;53.140;8.904;2023-07-20T18:18:07;2.07;;;1.23;;
11854;SDS011;5987;53.140;8.904;2023-07-20T18:21:11;2.57;;;1.27;;
11854;SDS011;5987;53.140;8.904;2023-07-20T18:24:15;3.40;;;1.17;;
11854;SDS011;5987;53.140;8.904;2023-07-20T18:27:19;3.67;;;1.30;;
11854;SDS011;5987;53.140;8.904;2023-07-20T18:30:23;1.93;;;1.00;;
11854;SDS011;5987;53.140;8.904;2023-07-20T18:33:36;4.20;;;1.17;;
11854;SDS011;5987;53.140;8.904;2023-07-20T18:36:40;3.87;;;1.17;;
11854;SDS011;5987;53.140;8.904;2023-07-20T18:39:44;4.43;;;1.63;;
11854;SDS011;5987;53.140;8.904;2023-07-20T18:42:48;7.00;;;1.53;;
11854;SDS011;5987;53.140;8.904;2023-07-20T18:45:52;3.20;;;1.83;;
11854;SDS011;5987;53.140;8.904;2023-07-20T18:48:57;4.83;;;1.67;;
11854;SDS011;5987;53.140;8.904;2023-07-20T18:52:01;1.97;;;1.13;;
11854;SDS011;5987;53.140;8.904;2023-07-20T18:55:05;3.03;;;1.70;;